Time;durP1;ratioP1;P1;durP2;ratioP2;P2;SDS_P1;SDS_P2;PMS_P1;PMS_P2;Temp;Humidity;BMP_temperature;BMP_pressure;BME280_temperature;BME280_humidity;BME280_pressure;Samples;Min_cycle;Max_cycle;Signal;HPM_P1;HPM_P2
2023/03/26 00:00:44;;;;;;;;;;;10.60;99.90;;;;;;7333914;19;109220;-65
2023/03/26 00:03:12;;;;;;;;;;;10.60;99.90;;;;;;7337472;19;109806;-65
2023/03/26 00:05:39;;;;;;;;;;;10.60;99.90;;;;;;7333694;19;109116;-65
2023/03/26 00:08:09;;;;;;;;;;;10.60;99.90;;;;;;7338398;19;110532;-65
2023/03/26 00:10:40;;;;;;;;;;;10.60;99.90;;;;;;7341331;19;108585;-65
2023/03/26 00:13:07;;;;;;;;;;;10.60;99.90;;;;;;7338914;19;109378;-65
2023/03/26 00:15:35;;;;;;;;;;;10.60;99.90;;;;;;7337904;19;110156;-65
2023/03/26 00:18:02;;;;;;;;;;;10.60;99.90;;;;;;7334259;19;108676;-65
2023/03/26 00:20:31;;;;;;;;;;;10.60;99.90;;;;;;7339090;19;109210;-65
2023/03/26 00:23:02;;;;;;;;;;;10.50;99.90;;;;;;7335785;19;109567;-65
2023/03/26 00:25:30;;;;;;;;;;;10.50;99.90;;;;;;7339568;19;109129;-65
2023/03/26 00:27:58;;;;;;;;;;;10.50;99.90;;;;;;7336347;19;112342;-65
2023/03/26 00:30:25;;;;;;;;;;;10.50;99.90;;;;;;7337123;19;110052;-65
2023/03/26 00:32:52;;;;;;;;;;;10.50;99.90;;;;;;7340444;19;109233;-65
2023/03/26 00:35:21;;;;;;;;;;;10.60;99.90;;;;;;7337191;19;109033;-65
2023/03/26 00:37:50;;;;;;;;;;;10.60;99.90;;;;;;7335526;19;108921;-65
2023/03/26 00:40:17;;;;;;;;;;;10.60;99.90;;;;;;7337779;19;110349;-65
2023/03/26 00:42:44;;;;;;;;;;;10.60;99.90;;;;;;7337730;19;110412;-65
2023/03/26 00:45:11;;;;;;;;;;;10.60;99.90;;;;;;7337844;19;108495;-65
2023/03/26 00:47:39;;;;;;;;;;;10.70;99.90;;;;;;7334560;19;109426;-65
2023/03/26 00:50:14;;;;;;;;;;;10.70;99.90;;;;;;7335967;19;114435;-65
2023/03/26 00:52:42;;;;;;;;;;;10.70;99.90;;;;;;7336811;19;109392;-65
2023/03/26 00:55:09;;;;;;;;;;;10.70;99.90;;;;;;7345780;19;109130;-66
2023/03/26 00:57:37;;;;;;;;;;;10.70;99.90;;;;;;7333404;19;110727;-65
2023/03/26 01:00:15;;;;;;;;;;;10.80;99.90;;;;;;7335699;19;109631;-65
2023/03/26 01:02:43;;;;;;;;;;;10.70;99.90;;;;;;7337873;19;109134;-65
2023/03/26 01:05:41;;;;;;;;;;;10.70;99.90;;;;;;7334526;19;108617;-68
2023/03/26 01:08:29;;;;;;;;;;;10.70;99.90;;;;;;7336066;19;109122;-65
2023/03/26 01:11:05;;;;;;;;;;;10.80;99.90;;;;;;7336872;19;108994;-65
2023/03/26 01:13:36;;;;;;;;;;;10.80;99.90;;;;;;7332298;19;111289;-65
2023/03/26 01:16:08;;;;;;;;;;;10.80;99.90;;;;;;7336405;19;109130;-65
2023/03/26 01:18:39;;;;;;;;;;;10.80;99.90;;;;;;7337376;19;109565;-72
2023/03/26 01:21:08;;;;;;;;;;;10.80;99.90;;;;;;7333539;19;112794;-68
2023/03/26 01:23:40;;;;;;;;;;;10.80;99.90;;;;;;7337899;19;108692;-70
2023/03/26 01:26:22;;;;;;;;;;;10.80;99.90;;;;;;7335251;19;108997;-72
2023/03/26 01:28:53;;;;;;;;;;;10.80;99.90;;;;;;7335658;19;110339;-72
2023/03/26 01:31:28;;;;;;;;;;;10.80;99.90;;;;;;7333792;19;108373;-74
2023/03/26 01:34:11;;;;;;;;;;;10.80;99.90;;;;;;7335471;19;109331;-73
2023/03/26 01:36:46;;;;;;;;;;;10.90;99.90;;;;;;7334958;19;110038;-70
2023/03/26 01:39:17;;;;;;;;;;;10.80;99.90;;;;;;7340314;19;109516;-74
2023/03/26 01:41:47;;;;;;;;;;;10.80;99.90;;;;;;7330850;19;109917;-66
2023/03/26 01:44:17;;;;;;;;;;;10.80;99.90;;;;;;7336744;19;110396;-65
2023/03/26 01:46:45;;;;;;;;;;;10.80;99.90;;;;;;7333205;19;109686;-65
2023/03/26 01:49:12;;;;;;;;;;;10.80;99.90;;;;;;7336028;19;110258;-66
2023/03/26 01:51:41;;;;;;;;;;;10.70;99.90;;;;;;7327249;19;109558;-65
2023/03/26 01:54:11;;;;;;;;;;;10.80;99.90;;;;;;7336429;19;108978;-66
2023/03/26 01:56:55;;;;;;;;;;;10.70;99.90;;;;;;7335907;19;109992;-66
2023/03/26 01:59:22;;;;;;;;;;;10.70;99.90;;;;;;7334730;19;109382;-65
2023/03/26 02:01:58;;;;;;;;;;;10.80;99.90;;;;;;7339859;19;109175;-65
2023/03/26 02:04:25;;;;;;;;;;;10.80;99.90;;;;;;7336805;19;108751;-66
2023/03/26 02:07:05;;;;;;;;;;;10.80;99.90;;;;;;7333706;19;109176;-66
2023/03/26 02:09:36;;;;;;;;;;;10.80;99.90;;;;;;7336571;19;109085;-66
2023/03/26 02:12:05;;;;;;;;;;;10.80;99.90;;;;;;7331631;19;110001;-66
2023/03/26 02:14:33;;;;;;;;;;;10.90;99.90;;;;;;7334887;19;110297;-65
2023/03/26 02:17:00;;;;;;;;;;;10.80;99.90;;;;;;7333811;19;110530;-65
2023/03/26 02:19:27;;;;;;;;;;;10.90;99.90;;;;;;7335436;19;109725;-66
2023/03/26 02:21:58;;;;;;;;;;;10.80;99.90;;;;;;7332546;19;108800;-65
2023/03/26 02:24:25;;;;;;;;;;;10.80;99.90;;;;;;7341294;19;109467;-66
2023/03/26 02:26:52;;;;;;;;;;;10.90;99.90;;;;;;7335813;19;109300;-66
2023/03/26 02:29:20;;;;;;;;;;;10.90;99.90;;;;;;7334464;19;109168;-66
2023/03/26 02:31:47;;;;;;;;;;;10.80;99.90;;;;;;7334977;19;108703;-65
2023/03/26 02:34:14;;;;;;;;;;;10.90;99.90;;;;;;7333064;19;110735;-66
2023/03/26 02:36:42;;;;;;;;;;;10.80;99.90;;;;;;7335300;19;110434;-65
2023/03/26 02:39:09;;;;;;;;;;;10.80;99.90;;;;;;7333439;19;110174;-65
2023/03/26 02:41:37;;;;;;;;;;;10.80;99.90;;;;;;7334791;19;108974;-65
2023/03/26 02:44:05;;;;;;;;;;;10.80;99.90;;;;;;7334775;19;109207;-65
2023/03/26 02:46:33;;;;;;;;;;;10.80;99.90;;;;;;7335732;19;108725;-66
2023/03/26 02:49:00;;;;;;;;;;;10.80;99.90;;;;;;7335432;19;110395;-65
2023/03/26 02:51:27;;;;;;;;;;;10.80;99.90;;;;;;7328045;19;110011;-65
2023/03/26 02:53:54;;;;;;;;;;;10.80;99.90;;;;;;7334312;19;108435;-65
2023/03/26 02:56:21;;;;;;;;;;;10.80;99.90;;;;;;7334022;19;113446;-65
2023/03/26 02:58:48;;;;;;;;;;;10.80;99.90;;;;;;7333783;19;108697;-65
2023/03/26 03:01:17;;;;;;;;;;;10.80;99.90;;;;;;7334143;19;108810;-65
2023/03/26 03:03:46;;;;;;;;;;;10.80;99.90;;;;;;7329917;19;109079;-67
2023/03/26 03:06:15;;;;;;;;;;;10.80;99.90;;;;;;7332755;19;109112;-64
2023/03/26 03:08:44;;;;;;;;;;;10.80;99.90;;;;;;7338031;19;109418;-67
2023/03/26 03:11:13;;;;;;;;;;;10.80;99.90;;;;;;7333291;19;109344;-67
2023/03/26 03:13:40;;;;;;;;;;;10.90;99.90;;;;;;7331728;19;108271;-67
2023/03/26 03:16:08;;;;;;;;;;;10.80;99.90;;;;;;7332092;19;109478;-67
2023/03/26 03:18:36;;;;;;;;;;;10.80;99.90;;;;;;7332929;19;109235;-67
2023/03/26 03:21:04;;;;;;;;;;;10.80;99.90;;;;;;7334137;19;108947;-67
2023/03/26 03:23:32;;;;;;;;;;;10.80;99.90;;;;;;7333141;19;109540;-67
2023/03/26 03:26:01;;;;;;;;;;;10.80;99.90;;;;;;7335517;19;108336;-67
2023/03/26 03:28:29;;;;;;;;;;;10.80;99.90;;;;;;7341232;19;108402;-67
2023/03/26 03:30:56;;;;;;;;;;;10.80;99.90;;;;;;7345948;19;109211;-67
2023/03/26 03:33:23;;;;;;;;;;;10.80;99.90;;;;;;7340440;19;109425;-65
2023/03/26 03:35:50;;;;;;;;;;;10.80;99.90;;;;;;7336146;19;109275;-67
2023/03/26 03:38:18;;;;;;;;;;;10.80;99.90;;;;;;7337291;19;108901;-67
2023/03/26 03:40:45;;;;;;;;;;;10.80;99.90;;;;;;7338251;19;110285;-67
2023/03/26 03:43:12;;;;;;;;;;;10.80;99.90;;;;;;7338831;19;109887;-68
2023/03/26 03:45:39;;;;;;;;;;;10.80;99.90;;;;;;7336938;19;108560;-67
2023/03/26 03:48:06;;;;;;;;;;;10.80;99.90;;;;;;7338547;19;109598;-67
2023/03/26 03:50:34;;;;;;;;;;;10.80;99.90;;;;;;7344568;19;109643;-67
2023/03/26 03:53:01;;;;;;;;;;;10.80;99.90;;;;;;7337219;19;110792;-67
2023/03/26 03:55:29;;;;;;;;;;;10.80;99.90;;;;;;7338506;19;110218;-67
2023/03/26 03:57:57;;;;;;;;;;;10.80;99.90;;;;;;7337435;19;108925;-67
2023/03/26 04:00:24;;;;;;;;;;;10.80;99.90;;;;;;7341781;19;109589;-67
2023/03/26 04:02:53;;;;;;;;;;;10.70;99.90;;;;;;7336639;19;109717;-67
2023/03/26 04:05:20;;;;;;;;;;;10.70;99.90;;;;;;7337450;19;109071;-67
2023/03/26 04:07:47;;;;;;;;;;;10.60;99.90;;;;;;7336473;19;109773;-67
2023/03/26 04:10:16;;;;;;;;;;;10.70;99.90;;;;;;7338794;19;110314;-67
2023/03/26 04:12:43;;;;;;;;;;;10.70;99.90;;;;;;7341804;19;109505;-67
2023/03/26 04:15:10;;;;;;;;;;;10.70;99.90;;;;;;7336617;19;109252;-67
2023/03/26 04:17:41;;;;;;;;;;;10.70;99.90;;;;;;7335501;19;109239;-67
2023/03/26 04:20:13;;;;;;;;;;;10.70;99.90;;;;;;7337762;19;109606;-70
2023/03/26 04:22:41;;;;;;;;;;;10.60;99.90;;;;;;7335700;19;110254;-67
2023/03/26 04:25:08;;;;;;;;;;;10.60;99.90;;;;;;7338396;19;108491;-67
2023/03/26 04:27:36;;;;;;;;;;;10.60;99.90;;;;;;7337963;19;108865;-67
2023/03/26 04:30:05;;;;;;;;;;;10.60;99.90;;;;;;7337832;19;109076;-67
2023/03/26 04:32:37;;;;;;;;;;;10.60;99.90;;;;;;7337099;19;109665;-67
2023/03/26 04:35:05;;;;;;;;;;;10.60;99.90;;;;;;7345417;19;111601;-67
2023/03/26 04:37:38;;;;;;;;;;;10.60;99.90;;;;;;7336646;19;110243;-65
2023/03/26 04:40:09;;;;;;;;;;;10.60;99.90;;;;;;7338524;19;108432;-66
2023/03/26 04:42:40;;;;;;;;;;;10.60;99.90;;;;;;7337239;19;113280;-65
2023/03/26 04:45:07;;;;;;;;;;;10.50;99.90;;;;;;7338501;19;109764;-65
2023/03/26 04:47:35;;;;;;;;;;;10.50;99.90;;;;;;7336603;19;108883;-65
2023/03/26 04:50:03;;;;;;;;;;;10.50;99.90;;;;;;7336079;19;110194;-65
2023/03/26 04:52:30;;;;;;;;;;;10.50;99.90;;;;;;7338179;19;108648;-65
2023/03/26 04:54:57;;;;;;;;;;;10.50;99.90;;;;;;7333773;19;109958;-65
2023/03/26 04:57:38;;;;;;;;;;;10.50;99.90;;;;;;7343681;19;109671;-65
2023/03/26 05:00:13;;;;;;;;;;;10.50;99.90;;;;;;7336569;19;109077;-65
2023/03/26 05:02:41;;;;;;;;;;;10.50;99.90;;;;;;7333483;19;110244;-65
2023/03/26 05:05:09;;;;;;;;;;;10.50;99.90;;;;;;7336409;19;108868;-66
2023/03/26 05:07:36;;;;;;;;;;;10.50;99.90;;;;;;7336731;19;109667;-65
2023/03/26 05:10:03;;;;;;;;;;;10.50;99.90;;;;;;7335989;19;110340;-65
2023/03/26 05:12:30;;;;;;;;;;;10.50;99.90;;;;;;7339010;19;109832;-65
2023/03/26 05:14:57;;;;;;;;;;;10.50;99.90;;;;;;7337100;19;109325;-65
2023/03/26 05:17:25;;;;;;;;;;;10.50;99.90;;;;;;7332273;19;110177;-65
2023/03/26 05:19:52;;;;;;;;;;;10.40;99.90;;;;;;7342096;19;109291;-65
2023/03/26 05:22:19;;;;;;;;;;;10.40;99.90;;;;;;7336698;19;108958;-65
2023/03/26 05:24:46;;;;;;;;;;;10.50;99.90;;;;;;7336532;19;109666;-66
2023/03/26 05:27:18;;;;;;;;;;;10.40;99.90;;;;;;7335188;19;108893;-66
2023/03/26 05:29:46;;;;;;;;;;;10.50;99.90;;;;;;7337532;19;109772;-65
2023/03/26 05:32:13;;;;;;;;;;;10.40;99.90;;;;;;7335097;19;108958;-66
2023/03/26 05:34:40;;;;;;;;;;;10.40;99.90;;;;;;7337015;19;108780;-66
2023/03/26 05:37:08;;;;;;;;;;;10.40;99.90;;;;;;7334852;19;109271;-66
2023/03/26 05:39:35;;;;;;;;;;;10.50;99.90;;;;;;7337969;19;108683;-66
2023/03/26 05:42:02;;;;;;;;;;;10.40;99.90;;;;;;7337571;19;110071;-66
2023/03/26 05:44:29;;;;;;;;;;;10.40;99.90;;;;;;7337209;19;108543;-66
2023/03/26 05:46:56;;;;;;;;;;;10.40;99.90;;;;;;7334649;19;110921;-66
2023/03/26 05:49:23;;;;;;;;;;;10.40;99.90;;;;;;7333456;19;109166;-66
2023/03/26 05:51:50;;;;;;;;;;;10.40;99.90;;;;;;7330874;19;109581;-66
2023/03/26 05:54:20;;;;;;;;;;;10.40;99.90;;;;;;7336016;19;109365;-71
2023/03/26 05:56:48;;;;;;;;;;;10.40;99.90;;;;;;7333729;19;109128;-74
2023/03/26 05:59:15;;;;;;;;;;;10.40;99.90;;;;;;7337984;19;108883;-71
2023/03/26 06:01:43;;;;;;;;;;;10.40;99.90;;;;;;7338788;19;108641;-67
2023/03/26 06:04:12;;;;;;;;;;;10.30;99.90;;;;;;7336443;19;108698;-67
2023/03/26 06:06:40;;;;;;;;;;;10.30;99.90;;;;;;7334565;19;108618;-67
2023/03/26 06:09:07;;;;;;;;;;;10.30;99.90;;;;;;7333352;19;113474;-70
2023/03/26 06:11:34;;;;;;;;;;;10.30;99.90;;;;;;7335564;19;109394;-66
2023/03/26 06:14:01;;;;;;;;;;;10.40;99.90;;;;;;7334642;19;108871;-66
2023/03/26 06:16:31;;;;;;;;;;;10.40;99.90;;;;;;7333501;19;110352;-65
2023/03/26 06:18:58;;;;;;;;;;;10.40;99.90;;;;;;7335336;19;111427;-66
2023/03/26 06:21:25;;;;;;;;;;;10.40;99.90;;;;;;7335246;19;109717;-66
2023/03/26 06:23:52;;;;;;;;;;;10.40;99.90;;;;;;7339269;19;111247;-66
2023/03/26 06:26:20;;;;;;;;;;;10.40;99.90;;;;;;7335989;19;110148;-66
2023/03/26 06:28:47;;;;;;;;;;;10.40;99.90;;;;;;7334868;19;110531;-66
2023/03/26 06:31:16;;;;;;;;;;;10.40;99.90;;;;;;7334204;19;111130;-66
2023/03/26 06:33:43;;;;;;;;;;;10.40;99.90;;;;;;7329667;19;110375;-66
2023/03/26 06:36:10;;;;;;;;;;;10.40;99.90;;;;;;7334612;19;109671;-66
2023/03/26 06:38:37;;;;;;;;;;;10.40;99.90;;;;;;7334778;19;109018;-66
2023/03/26 06:41:05;;;;;;;;;;;10.40;99.90;;;;;;7335208;19;112405;-66
2023/03/26 06:43:32;;;;;;;;;;;10.40;99.90;;;;;;7332918;19;109158;-67
2023/03/26 06:46:00;;;;;;;;;;;10.40;99.90;;;;;;7336513;19;109583;-66
2023/03/26 06:48:27;;;;;;;;;;;10.40;99.90;;;;;;7333610;19;109788;-66
2023/03/26 06:50:54;;;;;;;;;;;10.30;99.90;;;;;;7333214;19;110126;-66
2023/03/26 06:53:21;;;;;;;;;;;10.30;99.90;;;;;;7334487;19;109685;-66
2023/03/26 06:55:48;;;;;;;;;;;10.30;99.90;;;;;;7331219;19;109122;-65
2023/03/26 06:58:15;;;;;;;;;;;10.30;99.90;;;;;;7332813;19;108717;-66
2023/03/26 07:00:43;;;;;;;;;;;10.30;99.90;;;;;;7334131;19;109408;-66
2023/03/26 07:03:10;;;;;;;;;;;10.30;99.90;;;;;;7330424;19;109185;-66
2023/03/26 07:05:39;;;;;;;;;;;10.30;99.90;;;;;;7329323;19;110586;-66
2023/03/26 07:08:06;;;;;;;;;;;10.20;99.90;;;;;;7335991;19;109149;-66
2023/03/26 07:10:33;;;;;;;;;;;10.30;99.90;;;;;;7332296;19;108853;-66
2023/03/26 07:13:00;;;;;;;;;;;10.20;99.90;;;;;;7332299;19;109688;-66
2023/03/26 07:15:27;;;;;;;;;;;10.20;99.90;;;;;;7331509;19;110249;-66
2023/03/26 07:17:55;;;;;;;;;;;10.30;99.90;;;;;;7330953;19;109235;-66
2023/03/26 07:20:22;;;;;;;;;;;10.30;99.90;;;;;;7333472;19;108723;-66
2023/03/26 07:22:50;;;;;;;;;;;10.30;99.90;;;;;;7332818;19;112948;-66
2023/03/26 07:25:17;;;;;;;;;;;10.30;99.90;;;;;;7330698;19;110661;-66
2023/03/26 07:27:55;;;;;;;;;;;10.40;99.90;;;;;;7331354;19;109172;-66
2023/03/26 07:30:45;;;;;;;;;;;10.40;99.90;;;;;;7334950;19;109547;-66
2023/03/26 07:33:21;;;;;;;;;;;10.40;99.90;;;;;;7333456;19;108220;-66
2023/03/26 07:35:57;;;;;;;;;;;10.40;99.90;;;;;;7329881;19;109280;-66
2023/03/26 07:38:31;;;;;;;;;;;10.40;99.90;;;;;;7332457;19;110934;-66
2023/03/26 07:41:07;;;;;;;;;;;10.40;99.90;;;;;;7332940;19;109981;-66
2023/03/26 07:43:53;;;;;;;;;;;10.40;99.90;;;;;;7328885;19;109312;-66
2023/03/26 07:46:24;;;;;;;;;;;10.40;99.90;;;;;;7332195;19;109012;-66
2023/03/26 07:48:53;;;;;;;;;;;10.40;99.90;;;;;;7330127;19;110037;-66
2023/03/26 07:51:20;;;;;;;;;;;10.40;99.90;;;;;;7329310;19;110540;-66
2023/03/26 07:53:48;;;;;;;;;;;10.40;99.90;;;;;;7336763;19;108752;-66
2023/03/26 07:56:19;;;;;;;;;;;10.40;99.90;;;;;;7330391;19;109225;-66
2023/03/26 07:58:49;;;;;;;;;;;10.40;99.90;;;;;;7332268;19;109330;-66
2023/03/26 08:01:19;;;;;;;;;;;10.40;99.90;;;;;;7331196;19;108751;-66
2023/03/26 08:03:46;;;;;;;;;;;10.40;99.90;;;;;;7331041;19;109219;-66
2023/03/26 08:06:32;;;;;;;;;;;10.40;99.90;;;;;;7326827;19;108813;-69
2023/03/26 08:09:02;;;;;;;;;;;10.40;99.90;;;;;;7330653;19;110496;-69
2023/03/26 08:11:32;;;;;;;;;;;10.40;99.90;;;;;;7329313;19;111258;-70
2023/03/26 08:14:03;;;;;;;;;;;10.40;99.90;;;;;;7345091;19;110724;-68
2023/03/26 08:16:36;;;;;;;;;;;10.40;99.90;;;;;;7339700;19;109667;-65
2023/03/26 08:19:06;;;;;;;;;;;10.40;99.90;;;;;;7338367;19;108842;-66
2023/03/26 08:21:40;;;;;;;;;;;10.30;99.90;;;;;;7338303;19;108804;-65
2023/03/26 08:24:22;;;;;;;;;;;10.30;99.90;;;;;;7321230;19;109663;-65
2023/03/26 08:26:58;;;;;;;;;;;10.30;99.90;;;;;;7336285;19;108744;-66
2023/03/26 08:29:26;;;;;;;;;;;10.30;99.90;;;;;;7337580;19;111195;-65
2023/03/26 08:31:53;;;;;;;;;;;10.30;99.90;;;;;;7333914;19;110501;-65
2023/03/26 08:34:20;;;;;;;;;;;10.30;99.90;;;;;;7336226;19;110385;-65
2023/03/26 08:36:48;;;;;;;;;;;10.30;99.90;;;;;;7343128;19;109193;-66
2023/03/26 08:39:17;;;;;;;;;;;10.30;99.90;;;;;;7341026;19;108619;-65
2023/03/26 08:41:46;;;;;;;;;;;10.30;99.90;;;;;;7336086;19;109538;-65
2023/03/26 08:44:26;;;;;;;;;;;10.30;99.90;;;;;;7339951;19;109406;-65
2023/03/26 08:46:53;;;;;;;;;;;10.30;99.90;;;;;;7336543;19;108490;-65
2023/03/26 08:49:38;;;;;;;;;;;10.30;99.90;;;;;;7335285;19;110503;-65
2023/03/26 08:52:20;;;;;;;;;;;10.40;99.90;;;;;;7335746;19;109468;-65
2023/03/26 08:55:05;;;;;;;;;;;10.40;99.90;;;;;;7337420;19;109228;-65
2023/03/26 08:57:59;;;;;;;;;;;10.40;99.90;;;;;;7335994;19;109549;-65
2023/03/26 09:00:37;;;;;;;;;;;10.40;99.90;;;;;;7343156;19;110026;-65
2023/03/26 09:03:10;;;;;;;;;;;10.40;99.90;;;;;;7339861;19;109443;-65
2023/03/26 09:05:43;;;;;;;;;;;10.40;99.90;;;;;;7337089;19;109594;-65
2023/03/26 09:08:28;;;;;;;;;;;10.40;99.90;;;;;;7336922;19;109702;-65
2023/03/26 09:11:16;;;;;;;;;;;10.30;99.90;;;;;;7335755;19;109998;-65
2023/03/26 09:13:46;;;;;;;;;;;10.40;99.90;;;;;;7334525;19;110535;-64
2023/03/26 09:16:31;;;;;;;;;;;10.30;99.90;;;;;;7337207;19;108704;-65
2023/03/26 09:19:17;;;;;;;;;;;10.40;99.90;;;;;;7334009;19;110154;-65
2023/03/26 09:22:02;;;;;;;;;;;10.20;99.90;;;;;;7333203;19;109365;-65
2023/03/26 09:24:48;;;;;;;;;;;10.10;99.90;;;;;;7339024;19;108980;-70
2023/03/26 09:27:33;;;;;;;;;;;10.00;99.90;;;;;;7333478;19;110652;-67
2023/03/26 09:30:10;;;;;;;;;;;9.90;99.90;;;;;;7332852;19;109766;-70
2023/03/26 09:32:55;;;;;;;;;;;9.90;99.90;;;;;;7334755;19;109210;-65
2023/03/26 09:35:41;;;;;;;;;;;10.00;99.90;;;;;;7333928;19;110894;-67
2023/03/26 09:38:10;;;;;;;;;;;9.90;99.90;;;;;;7334087;19;111295;-64
2023/03/26 09:40:45;;;;;;;;;;;9.90;99.90;;;;;;7337980;19;108772;-67
2023/03/26 09:43:18;;;;;;;;;;;9.90;99.90;;;;;;7337244;19;109112;-67
2023/03/26 09:45:56;;;;;;;;;;;9.90;99.90;;;;;;7338981;19;108487;-67
2023/03/26 09:48:39;;;;;;;;;;;10.00;99.90;;;;;;7340129;19;109465;-67
2023/03/26 09:51:12;;;;;;;;;;;9.90;99.90;;;;;;7335405;19;111937;-71
2023/03/26 09:53:52;;;;;;;;;;;10.00;99.90;;;;;;7333575;19;109553;-71
2023/03/26 09:56:24;;;;;;;;;;;9.80;99.90;;;;;;7330533;19;110885;-71
2023/03/26 09:59:10;;;;;;;;;;;9.80;99.90;;;;;;7336731;19;108681;-71
2023/03/26 10:01:40;;;;;;;;;;;9.70;99.90;;;;;;7336192;19;108726;-72
2023/03/26 10:04:27;;;;;;;;;;;9.70;99.90;;;;;;7336171;19;109650;-71
2023/03/26 10:07:00;;;;;;;;;;;9.80;99.90;;;;;;7336957;19;109192;-72
2023/03/26 10:09:49;;;;;;;;;;;9.90;99.90;;;;;;7342405;19;108837;-71
2023/03/26 10:12:23;;;;;;;;;;;9.90;99.90;;;;;;7336345;19;108726;-72
2023/03/26 10:15:08;;;;;;;;;;;9.90;99.90;;;;;;7337906;19;109368;-72
2023/03/26 10:17:38;;;;;;;;;;;9.90;99.90;;;;;;7335826;19;109130;-73
2023/03/26 10:20:20;;;;;;;;;;;9.90;99.90;;;;;;7338178;19;109434;-72
2023/03/26 10:22:59;;;;;;;;;;;9.90;99.90;;;;;;7336375;19;108921;-71
2023/03/26 10:25:45;;;;;;;;;;;9.90;99.90;;;;;;7335743;19;109551;-72
2023/03/26 10:28:15;;;;;;;;;;;9.90;99.90;;;;;;7336060;19;108498;-71
2023/03/26 10:30:54;;;;;;;;;;;9.90;99.90;;;;;;7333917;19;109743;-71
2023/03/26 10:33:21;;;;;;;;;;;10.00;99.90;;;;;;7340816;19;110414;-71
2023/03/26 10:35:56;;;;;;;;;;;10.00;99.90;;;;;;7333902;19;108997;-72
2023/03/26 10:38:29;;;;;;;;;;;10.20;99.90;;;;;;7332732;19;110804;-71
2023/03/26 10:41:15;;;;;;;;;;;10.20;99.90;;;;;;7334801;19;109758;-71
2023/03/26 10:44:01;;;;;;;;;;;10.20;99.90;;;;;;7331123;19;108842;-71
2023/03/26 10:46:49;;;;;;;;;;;10.20;99.90;;;;;;7334665;19;110101;-72
2023/03/26 10:49:40;;;;;;;;;;;10.20;99.90;;;;;;7334467;19;108904;-71
2023/03/26 10:52:10;;;;;;;;;;;10.20;99.90;;;;;;7336238;19;108780;-71
2023/03/26 10:54:47;;;;;;;;;;;10.20;99.90;;;;;;7335298;19;109010;-72
2023/03/26 10:57:34;;;;;;;;;;;10.20;99.90;;;;;;7339682;19;110467;-72
2023/03/26 11:00:11;;;;;;;;;;;10.20;99.90;;;;;;7333758;19;109293;-72
2023/03/26 11:02:43;;;;;;;;;;;10.20;99.90;;;;;;7333435;19;108700;-75
2023/03/26 11:05:13;;;;;;;;;;;10.10;99.90;;;;;;7335926;19;111897;-72
2023/03/26 11:07:58;;;;;;;;;;;10.10;99.90;;;;;;7333954;19;113111;-73
2023/03/26 11:10:44;;;;;;;;;;;10.10;99.90;;;;;;7338428;19;109790;-73
2023/03/26 11:13:30;;;;;;;;;;;10.10;99.90;;;;;;7335880;19;108138;-73
2023/03/26 11:16:14;;;;;;;;;;;10.20;99.90;;;;;;7337145;19;110122;-75
2023/03/26 11:18:44;;;;;;;;;;;10.30;99.90;;;;;;7335517;19;109395;-73
2023/03/26 11:21:25;;;;;;;;;;;10.20;99.90;;;;;;7342834;19;108709;-72
2023/03/26 11:24:01;;;;;;;;;;;10.20;99.90;;;;;;7332535;19;110151;-71
2023/03/26 11:26:31;;;;;;;;;;;10.30;99.90;;;;;;7336106;19;109094;-71
2023/03/26 11:29:01;;;;;;;;;;;10.30;99.90;;;;;;7335137;19;109147;-72
2023/03/26 11:31:54;;;;;;;;;;;10.30;99.90;;;;;;7331912;19;108732;-71
2023/03/26 11:34:26;;;;;;;;;;;10.10;99.90;;;;;;7334139;19;109337;-70
2023/03/26 11:36:56;;;;;;;;;;;10.20;99.90;;;;;;7328553;19;109734;-76
2023/03/26 11:39:25;;;;;;;;;;;10.30;99.90;;;;;;7334896;19;108973;-78
2023/03/26 11:41:58;;;;;;;;;;;10.40;99.90;;;;;;7331595;19;109296;-75
2023/03/26 11:44:27;;;;;;;;;;;10.50;99.90;;;;;;7340047;19;109206;-76
2023/03/26 11:46:57;;;;;;;;;;;10.50;99.90;;;;;;7333423;19;109351;-75
2023/03/26 11:49:25;;;;;;;;;;;10.50;99.90;;;;;;7340531;19;110109;-75
2023/03/26 11:51:53;;;;;;;;;;;10.50;99.90;;;;;;7337586;19;108531;-75
2023/03/26 11:54:21;;;;;;;;;;;10.50;99.90;;;;;;7341911;19;110208;-75
2023/03/26 11:56:53;;;;;;;;;;;10.50;99.90;;;;;;7341953;19;112966;-75
2023/03/26 11:59:42;;;;;;;;;;;10.60;99.90;;;;;;7336264;19;108731;-74
2023/03/26 12:02:24;;;;;;;;;;;10.70;99.90;;;;;;7338170;19;110220;-76
2023/03/26 12:04:54;;;;;;;;;;;10.80;99.90;;;;;;7338490;19;110345;-77
2023/03/26 12:07:32;;;;;;;;;;;10.90;99.90;;;;;;7345851;19;108418;-80
2023/03/26 12:10:00;;;;;;;;;;;10.80;99.90;;;;;;7340471;19;110471;-76
2023/03/26 12:12:47;;;;;;;;;;;10.80;99.90;;;;;;7337461;19;108853;-75
2023/03/26 12:15:15;;;;;;;;;;;10.90;99.90;;;;;;7339900;19;110875;-74
2023/03/26 12:17:43;;;;;;;;;;;11.00;99.90;;;;;;7337839;19;110832;-75
2023/03/26 12:20:25;;;;;;;;;;;11.00;99.90;;;;;;7340339;19;108568;-75
2023/03/26 12:22:59;;;;;;;;;;;11.10;99.90;;;;;;7339093;19;111985;-75
2023/03/26 12:25:29;;;;;;;;;;;11.20;99.90;;;;;;7338854;19;110379;-74
2023/03/26 12:28:01;;;;;;;;;;;11.20;99.90;;;;;;7345655;19;108702;-75
2023/03/26 12:30:32;;;;;;;;;;;11.30;99.90;;;;;;7338204;19;108940;-74
2023/03/26 12:33:02;;;;;;;;;;;11.30;99.90;;;;;;7340007;19;108627;-75
2023/03/26 12:35:33;;;;;;;;;;;11.30;99.90;;;;;;7339065;19;110477;-75
2023/03/26 12:38:15;;;;;;;;;;;11.30;99.90;;;;;;7338196;19;109181;-75
2023/03/26 12:40:43;;;;;;;;;;;11.30;99.90;;;;;;7337005;19;108503;-75
2023/03/26 12:43:21;;;;;;;;;;;11.40;99.90;;;;;;7337280;19;112498;-75
2023/03/26 12:46:31;;;;;;;;;;;11.40;99.90;;;;;;7337301;19;109260;-76
2023/03/26 12:49:19;;;;;;;;;;;11.50;99.90;;;;;;7335907;19;111092;-75
2023/03/26 12:51:51;;;;;;;;;;;11.50;99.90;;;;;;7339930;19;108896;-75
2023/03/26 12:54:22;;;;;;;;;;;11.50;99.90;;;;;;7338419;19;109191;-75
2023/03/26 12:56:58;;;;;;;;;;;11.60;99.90;;;;;;7336937;19;110695;-76
2023/03/26 12:59:38;;;;;;;;;;;11.60;99.90;;;;;;7337771;19;109336;-76
2023/03/26 13:02:05;;;;;;;;;;;11.60;99.90;;;;;;7339857;19;110417;-76
2023/03/26 13:04:51;;;;;;;;;;;11.60;99.90;;;;;;7336784;19;109349;-76
2023/03/26 13:07:38;;;;;;;;;;;11.60;99.90;;;;;;7335087;19;110663;-76
2023/03/26 13:10:09;;;;;;;;;;;11.60;99.90;;;;;;7340835;19;111478;-76
2023/03/26 13:12:52;;;;;;;;;;;11.70;99.90;;;;;;7336761;19;109632;-76
2023/03/26 13:15:31;;;;;;;;;;;11.70;99.90;;;;;;7344897;19;109143;-75
2023/03/26 13:18:02;;;;;;;;;;;11.70;99.90;;;;;;7338686;19;109069;-80
2023/03/26 13:20:50;;;;;;;;;;;11.70;99.90;;;;;;7338154;19;110463;-80
2023/03/26 13:23:17;;;;;;;;;;;11.80;99.90;;;;;;7336259;19;111127;-80
2023/03/26 13:25:50;;;;;;;;;;;11.80;99.90;;;;;;7336955;19;111016;-77
2023/03/26 13:28:35;;;;;;;;;;;11.80;99.90;;;;;;7338631;19;109155;-77
2023/03/26 13:31:07;;;;;;;;;;;11.80;99.90;;;;;;7338078;19;110360;-77
2023/03/26 13:33:38;;;;;;;;;;;11.70;99.90;;;;;;7338494;19;109245;-77
2023/03/26 13:36:11;;;;;;;;;;;11.70;99.90;;;;;;7337001;19;110468;-77
2023/03/26 13:39:08;;;;;;;;;;;11.70;99.90;;;;;;7343853;19;108862;-77
2023/03/26 13:41:42;;;;;;;;;;;11.80;99.90;;;;;;7337093;19;114015;-77
2023/03/26 13:44:13;;;;;;;;;;;11.80;99.90;;;;;;7338745;19;108660;-77
2023/03/26 13:46:42;;;;;;;;;;;11.80;99.90;;;;;;7339250;19;108652;-77
2023/03/26 13:49:14;;;;;;;;;;;11.80;99.90;;;;;;7338146;19;113819;-77
2023/03/26 13:51:41;;;;;;;;;;;11.70;99.90;;;;;;7342838;19;109514;-77
2023/03/26 13:54:34;;;;;;;;;;;11.60;99.90;;;;;;7344385;19;108411;-77
2023/03/26 13:57:19;;;;;;;;;;;11.70;99.90;;;;;;7342803;19;109107;-77
2023/03/26 13:59:46;;;;;;;;;;;11.70;99.90;;;;;;7340088;19;109594;-77
2023/03/26 14:02:18;;;;;;;;;;;11.70;99.90;;;;;;7343935;19;108776;-77
2023/03/26 14:04:49;;;;;;;;;;;11.70;99.90;;;;;;7339868;19;108451;-77
2023/03/26 14:07:35;;;;;;;;;;;11.70;99.90;;;;;;7338351;19;109989;-77
2023/03/26 14:10:06;;;;;;;;;;;11.80;99.90;;;;;;7335204;19;109313;-76
2023/03/26 14:12:55;;;;;;;;;;;11.80;99.90;;;;;;7335463;19;108714;-76
2023/03/26 14:15:40;;;;;;;;;;;11.80;99.90;;;;;;7336047;19;108739;-77
2023/03/26 14:18:19;;;;;;;;;;;11.60;99.90;;;;;;7336042;19;110166;-77
2023/03/26 14:20:46;;;;;;;;;;;11.60;99.90;;;;;;7334578;19;110112;-77
2023/03/26 14:23:20;;;;;;;;;;;11.60;99.90;;;;;;7336471;19;108689;-77
2023/03/26 14:26:06;;;;;;;;;;;11.60;99.90;;;;;;7340463;19;109184;-77
2023/03/26 14:28:45;;;;;;;;;;;11.70;99.90;;;;;;7334478;19;108902;-77
2023/03/26 14:31:12;;;;;;;;;;;11.70;99.90;;;;;;7337957;19;110306;-77
2023/03/26 14:33:55;;;;;;;;;;;11.70;99.90;;;;;;7333232;19;109778;-77
2023/03/26 14:36:38;;;;;;;;;;;11.70;99.90;;;;;;7336692;19;108511;-77